sensor_id;sensor_type;location;lat;lon;timestamp;pressure;altitude;pressure_sealevel;temperature;humidity
16331;BME280;8275;48.206;16.340;2023-03-29T00:01:09;100011.09;;;8.49;31.48
16331;BME280;8275;48.206;16.340;2023-03-29T00:03:57;100016.56;;;8.49;31.37
16331;BME280;8275;48.206;16.340;2023-03-29T00:06:30;100014.69;;;8.50;31.51
16331;BME280;8275;48.206;16.340;2023-03-29T00:08:59;100013.84;;;8.49;31.48
16331;BME280;8275;48.206;16.340;2023-03-29T00:11:31;100014.06;;;8.48;31.34
16331;BME280;8275;48.206;16.340;2023-03-29T00:14:00;100016.81;;;8.48;31.41
16331;BME280;8275;48.206;16.340;2023-03-29T00:16:28;100012.41;;;8.47;31.51
16331;BME280;8275;48.206;16.340;2023-03-29T00:18:57;100008.00;;;8.46;31.53
16331;BME280;8275;48.206;16.340;2023-03-29T00:21:26;100007.16;;;8.45;31.50
16331;BME280;8275;48.206;16.340;2023-03-29T00:23:57;100006.31;;;8.45;31.47
16331;BME280;8275;48.206;16.340;2023-03-29T00:26:25;100001.94;;;8.44;31.59
16331;BME280;8275;48.206;16.340;2023-03-29T00:28:54;100004.66;;;8.44;31.45
16331;BME280;8275;48.206;16.340;2023-03-29T00:31:22;100000.25;;;8.43;31.49
16331;BME280;8275;48.206;16.340;2023-03-29T00:33:51;100003.22;;;8.41;31.51
16331;BME280;8275;48.206;16.340;2023-03-29T00:36:19;100011.84;;;8.38;31.61
16331;BME280;8275;48.206;16.340;2023-03-29T00:38:49;100007.47;;;8.37;31.48
16331;BME280;8275;48.206;16.340;2023-03-29T00:41:19;100012.31;;;8.35;31.40
16331;BME280;8275;48.206;16.340;2023-03-29T00:43:54;100010.63;;;8.34;31.60
16331;BME280;8275;48.206;16.340;2023-03-29T00:46:23;100017.78;;;8.35;31.67
16331;BME280;8275;48.206;16.340;2023-03-29T00:48:55;100023.00;;;8.37;31.64
16331;BME280;8275;48.206;16.340;2023-03-29T00:51:27;100017.78;;;8.35;31.56
16331;BME280;8275;48.206;16.340;2023-03-29T00:54:00;100021.56;;;8.34;31.54
16331;BME280;8275;48.206;16.340;2023-03-29T00:56:32;100028.91;;;8.34;31.58
16331;BME280;8275;48.206;16.340;2023-03-29T00:59:06;100024.28;;;8.34;31.30
16331;BME280;8275;48.206;16.340;2023-03-29T01:01:42;100022.41;;;8.35;31.91
16331;BME280;8275;48.206;16.340;2023-03-29T01:04:17;100009.34;;;8.37;31.92
16331;BME280;8275;48.206;16.340;2023-03-29T01:06:52;100011.03;;;8.38;31.48
16331;BME280;8275;48.206;16.340;2023-03-29T01:09:24;100006.38;;;8.38;31.82
16331;BME280;8275;48.206;16.340;2023-03-29T01:12:02;100011.66;;;8.40;32.21
16331;BME280;8275;48.206;16.340;2023-03-29T01:14:38;99998.00;;;8.40;32.31
16331;BME280;8275;48.206;16.340;2023-03-29T01:17:09;100004.66;;;8.44;31.89
16331;BME280;8275;48.206;16.340;2023-03-29T01:19:43;99991.84;;;8.44;32.13
16331;BME280;8275;48.206;16.340;2023-03-29T01:22:21;99983.19;;;8.47;32.20
16331;BME280;8275;48.206;16.340;2023-03-29T01:25:05;99984.66;;;8.50;32.36
16331;BME280;8275;48.206;16.340;2023-03-29T01:27:49;99980.63;;;8.53;32.29
16331;BME280;8275;48.206;16.340;2023-03-29T01:30:25;99991.94;;;8.56;32.06
16331;BME280;8275;48.206;16.340;2023-03-29T01:32:58;99994.22;;;8.59;32.42
16331;BME280;8275;48.206;16.340;2023-03-29T01:35:35;99994.00;;;8.61;32.29
16331;BME280;8275;48.206;16.340;2023-03-29T01:38:08;99991.03;;;8.62;32.37
16331;BME280;8275;48.206;16.340;2023-03-29T01:40:39;99985.56;;;8.62;32.35
16331;BME280;8275;48.206;16.340;2023-03-29T01:43:20;99979.50;;;8.60;32.57
16331;BME280;8275;48.206;16.340;2023-03-29T01:45:59;99973.88;;;8.55;32.57
16331;BME280;8275;48.206;16.340;2023-03-29T01:48:34;99977.53;;;8.49;32.53
16331;BME280;8275;48.206;16.340;2023-03-29T01:51:07;99970.47;;;8.41;32.73
16331;BME280;8275;48.206;16.340;2023-03-29T01:53:41;99972.41;;;8.34;32.46
16331;BME280;8275;48.206;16.340;2023-03-29T01:56:16;99975.81;;;8.30;32.69
16331;BME280;8275;48.206;16.340;2023-03-29T01:58:51;99977.50;;;8.24;33.01
16331;BME280;8275;48.206;16.340;2023-03-29T02:01:23;99978.19;;;8.20;33.02
16331;BME280;8275;48.206;16.340;2023-03-29T02:03:56;99969.84;;;8.15;32.75
16331;BME280;8275;48.206;16.340;2023-03-29T02:06:27;99962.53;;;8.09;32.45
16331;BME280;8275;48.206;16.340;2023-03-29T02:08:58;99962.16;;;8.05;32.94
16331;BME280;8275;48.206;16.340;2023-03-29T02:11:26;99961.16;;;8.00;32.88
16331;BME280;8275;48.206;16.340;2023-03-29T02:13:57;99959.31;;;7.94;32.91
16331;BME280;8275;48.206;16.340;2023-03-29T02:16:26;99963.56;;;7.90;32.71
16331;BME280;8275;48.206;16.340;2023-03-29T02:18:56;99969.47;;;7.87;33.23
16331;BME280;8275;48.206;16.340;2023-03-29T02:21:28;99969.88;;;7.84;33.20
16331;BME280;8275;48.206;16.340;2023-03-29T02:23:59;99972.25;;;7.80;33.25
16331;BME280;8275;48.206;16.340;2023-03-29T02:26:30;99977.69;;;7.80;33.47
16331;BME280;8275;48.206;16.340;2023-03-29T02:28:59;99977.09;;;7.78;33.24
16331;BME280;8275;48.206;16.340;2023-03-29T02:31:32;99976.44;;;7.76;33.19
16331;BME280;8275;48.206;16.340;2023-03-29T02:34:09;99979.41;;;7.74;33.66
16331;BME280;8275;48.206;16.340;2023-03-29T02:36:47;99984.25;;;7.72;33.74
16331;BME280;8275;48.206;16.340;2023-03-29T02:39:18;99978.78;;;7.72;33.43
16331;BME280;8275;48.206;16.340;2023-03-29T02:41:49;99975.66;;;7.69;33.63
16331;BME280;8275;48.206;16.340;2023-03-29T02:44:22;99980.06;;;7.70;33.83
16331;BME280;8275;48.206;16.340;2023-03-29T02:46:55;99983.03;;;7.68;33.66
16331;BME280;8275;48.206;16.340;2023-03-29T02:49:25;99983.03;;;7.68;33.96
16331;BME280;8275;48.206;16.340;2023-03-29T02:51:56;99979.44;;;7.68;34.05
16331;BME280;8275;48.206;16.340;2023-03-29T02:54:30;99979.69;;;7.66;34.04
16331;BME280;8275;48.206;16.340;2023-03-29T02:57:03;99981.78;;;7.64;34.16
16331;BME280;8275;48.206;16.340;2023-03-29T02:59:34;99976.78;;;7.61;34.28
16331;BME280;8275;48.206;16.340;2023-03-29T03:02:04;99969.88;;;7.59;34.32
16331;BME280;8275;48.206;16.340;2023-03-29T03:04:33;99973.03;;;7.56;34.00
16331;BME280;8275;48.206;16.340;2023-03-29T03:07:02;99977.63;;;7.55;34.39
16331;BME280;8275;48.206;16.340;2023-03-29T03:09:32;99974.28;;;7.53;34.51
16331;BME280;8275;48.206;16.340;2023-03-29T03:12:01;99979.75;;;7.53;34.16
16331;BME280;8275;48.206;16.340;2023-03-29T03:14:30;99971.56;;;7.53;34.42
16331;BME280;8275;48.206;16.340;2023-03-29T03:17:00;99965.69;;;7.56;33.97
16331;BME280;8275;48.206;16.340;2023-03-29T03:19:30;99968.78;;;7.60;34.60
16331;BME280;8275;48.206;16.340;2023-03-29T03:21:59;99958.31;;;7.63;34.40
16331;BME280;8275;48.206;16.340;2023-03-29T03:24:28;99959.28;;;7.69;34.17
16331;BME280;8275;48.206;16.340;2023-03-29T03:26:58;99965.75;;;7.74;34.62
16331;BME280;8275;48.206;16.340;2023-03-29T03:29:27;99950.63;;;7.78;34.37
16331;BME280;8275;48.206;16.340;2023-03-29T03:31:55;99948.06;;;7.84;34.38
16331;BME280;8275;48.206;16.340;2023-03-29T03:34:26;99954.97;;;7.86;34.21
16331;BME280;8275;48.206;16.340;2023-03-29T03:36:54;99952.84;;;7.88;34.22
16331;BME280;8275;48.206;16.340;2023-03-29T03:39:22;99942.78;;;7.89;34.02
16331;BME280;8275;48.206;16.340;2023-03-29T03:41:51;99947.19;;;7.90;34.25
16331;BME280;8275;48.206;16.340;2023-03-29T03:44:19;99944.47;;;7.90;33.99
16331;BME280;8275;48.206;16.340;2023-03-29T03:46:48;99944.47;;;7.90;33.92
16331;BME280;8275;48.206;16.340;2023-03-29T03:49:17;99938.38;;;7.88;34.39
16331;BME280;8275;48.206;16.340;2023-03-29T03:51:46;99939.44;;;7.87;33.92
16331;BME280;8275;48.206;16.340;2023-03-29T03:54:18;99942.38;;;7.85;33.71
16331;BME280;8275;48.206;16.340;2023-03-29T03:56:46;99938.00;;;7.84;33.82
16331;BME280;8275;48.206;16.340;2023-03-29T03:59:15;99945.34;;;7.84;33.79
16331;BME280;8275;48.206;16.340;2023-03-29T04:01:44;99939.88;;;7.84;33.78
16331;BME280;8275;48.206;16.340;2023-03-29T04:04:12;99947.03;;;7.85;33.74
16331;BME280;8275;48.206;16.340;2023-03-29T04:06:42;99942.38;;;7.85;33.84
16331;BME280;8275;48.206;16.340;2023-03-29T04:09:12;99935.03;;;7.86;33.90
16331;BME280;8275;48.206;16.340;2023-03-29T04:11:40;99927.69;;;7.86;34.35
16331;BME280;8275;48.206;16.340;2023-03-29T04:14:09;99922.25;;;7.86;33.87
16331;BME280;8275;48.206;16.340;2023-03-29T04:16:37;99924.75;;;7.88;34.58
16331;BME280;8275;48.206;16.340;2023-03-29T04:19:06;99923.25;;;7.92;34.33
16331;BME280;8275;48.206;16.340;2023-03-29T04:21:34;99919.25;;;7.94;34.27
16331;BME280;8275;48.206;16.340;2023-03-29T04:24:03;99916.53;;;7.94;34.47
16331;BME280;8275;48.206;16.340;2023-03-29T04:26:33;99915.88;;;7.92;33.84
16331;BME280;8275;48.206;16.340;2023-03-29T04:29:02;99901.44;;;7.92;34.26
16331;BME280;8275;48.206;16.340;2023-03-29T04:31:31;99903.56;;;7.90;34.00
16331;BME280;8275;48.206;16.340;2023-03-29T04:33:59;99914.47;;;7.90;33.98
16331;BME280;8275;48.206;16.340;2023-03-29T04:36:28;99904.38;;;7.90;34.08
16331;BME280;8275;48.206;16.340;2023-03-29T04:38:56;99911.50;;;7.91;33.99
16331;BME280;8275;48.206;16.340;2023-03-29T04:41:27;99905.38;;;7.96;34.14
16331;BME280;8275;48.206;16.340;2023-03-29T04:43:57;99907.66;;;7.99;33.91
16331;BME280;8275;48.206;16.340;2023-03-29T04:46:25;99903.19;;;8.04;34.29
16331;BME280;8275;48.206;16.340;2023-03-29T04:48:54;99902.50;;;8.09;34.19
16331;BME280;8275;48.206;16.340;2023-03-29T04:51:23;99909.81;;;8.15;34.40
16331;BME280;8275;48.206;16.340;2023-03-29T04:53:51;99918.13;;;8.20;34.12
16331;BME280;8275;48.206;16.340;2023-03-29T04:56:20;99916.84;;;8.22;33.96
16331;BME280;8275;48.206;16.340;2023-03-29T04:58:49;99920.63;;;8.28;34.03
16331;BME280;8275;48.206;16.340;2023-03-29T05:01:19;99921.59;;;8.33;34.24
16331;BME280;8275;48.206;16.340;2023-03-29T05:03:47;99910.63;;;8.40;34.05
16331;BME280;8275;48.206;16.340;2023-03-29T05:06:16;99907.22;;;8.44;34.33
16331;BME280;8275;48.206;16.340;2023-03-29T05:08:44;99914.72;;;8.49;34.02
16331;BME280;8275;48.206;16.340;2023-03-29T05:11:13;99915.09;;;8.53;34.05
16331;BME280;8275;48.206;16.340;2023-03-29T05:13:41;99922.84;;;8.56;34.16
16331;BME280;8275;48.206;16.340;2023-03-29T05:16:10;99917.16;;;8.57;34.35
16331;BME280;8275;48.206;16.340;2023-03-29T05:18:40;99914.41;;;8.57;34.19
16331;BME280;8275;48.206;16.340;2023-03-29T05:21:08;99925.34;;;8.57;34.22
16331;BME280;8275;48.206;16.340;2023-03-29T05:23:37;99918.44;;;8.55;34.14
16331;BME280;8275;48.206;16.340;2023-03-29T05:26:05;99924.13;;;8.53;34.03
16331;BME280;8275;48.206;16.340;2023-03-29T05:28:36;99915.53;;;8.49;34.20
16331;BME280;8275;48.206;16.340;2023-03-29T05:31:06;99906.13;;;8.45;34.18
16331;BME280;8275;48.206;16.340;2023-03-29T05:33:34;99896.50;;;8.43;34.24
16331;BME280;8275;48.206;16.340;2023-03-29T05:36:07;99901.38;;;8.41;34.36
16331;BME280;8275;48.206;16.340;2023-03-29T05:38:37;99902.22;;;8.41;34.20
16331;BME280;8275;48.206;16.340;2023-03-29T05:41:06;99904.69;;;8.43;34.28
16331;BME280;8275;48.206;16.340;2023-03-29T05:43:34;99909.94;;;8.44;34.64
16331;BME280;8275;48.206;16.340;2023-03-29T05:46:03;99887.63;;;8.47;34.46
16331;BME280;8275;48.206;16.340;2023-03-29T05:48:33;99884.22;;;8.52;34.78
16331;BME280;8275;48.206;16.340;2023-03-29T05:51:03;99897.81;;;8.59;34.59
16331;BME280;8275;48.206;16.340;2023-03-29T05:53:32;99892.28;;;8.65;34.23
16331;BME280;8275;48.206;16.340;2023-03-29T05:56:01;99897.41;;;8.73;34.36
16331;BME280;8275;48.206;16.340;2023-03-29T05:58:30;99909.94;;;8.81;34.34
16331;BME280;8275;48.206;16.340;2023-03-29T06:00:58;99923.06;;;8.90;34.41
16331;BME280;8275;48.206;16.340;2023-03-29T06:03:31;99917.84;;;9.00;34.33
16331;BME280;8275;48.206;16.340;2023-03-29T06:06:01;99920.28;;;9.08;34.22
16331;BME280;8275;48.206;16.340;2023-03-29T06:08:33;99923.31;;;9.18;34.07
16331;BME280;8275;48.206;16.340;2023-03-29T06:11:04;99928.19;;;9.28;34.07
16331;BME280;8275;48.206;16.340;2023-03-29T06:13:35;99920.53;;;9.37;33.80
16331;BME280;8275;48.206;16.340;2023-03-29T06:16:06;99916.59;;;9.44;34.02
16331;BME280;8275;48.206;16.340;2023-03-29T06:18:35;99915.91;;;9.49;34.03
16331;BME280;8275;48.206;16.340;2023-03-29T06:21:07;99914.84;;;9.50;33.72
16331;BME280;8275;48.206;16.340;2023-03-29T06:23:36;99915.44;;;9.52;33.91
16331;BME280;8275;48.206;16.340;2023-03-29T06:26:06;99921.31;;;9.55;33.68
16331;BME280;8275;48.206;16.340;2023-03-29T06:28:34;99923.94;;;9.62;33.87
16331;BME280;8275;48.206;16.340;2023-03-29T06:31:03;99922.72;;;9.69;33.60
16331;BME280;8275;48.206;16.340;2023-03-29T06:33:32;99919.44;;;9.79;33.76
16331;BME280;8275;48.206;16.340;2023-03-29T06:36:03;99920.75;;;9.88;33.48
16331;BME280;8275;48.206;16.340;2023-03-29T06:38:32;99921.72;;;9.94;33.29
16331;BME280;8275;48.206;16.340;2023-03-29T06:41:05;99922.44;;;10.01;33.43
16331;BME280;8275;48.206;16.340;2023-03-29T06:43:34;99923.31;;;10.13;33.35
16331;BME280;8275;48.206;16.340;2023-03-29T06:46:03;99914.28;;;10.24;33.32
16331;BME280;8275;48.206;16.340;2023-03-29T06:48:34;99914.00;;;10.37;33.05
16331;BME280;8275;48.206;16.340;2023-03-29T06:51:03;99918.91;;;10.46;32.82
16331;BME280;8275;48.206;16.340;2023-03-29T06:53:33;99913.03;;;10.54;32.80
16331;BME280;8275;48.206;16.340;2023-03-29T06:56:05;99910.28;;;10.66;32.60
16331;BME280;8275;48.206;16.340;2023-03-29T06:58:35;99915.25;;;10.81;32.73
16331;BME280;8275;48.206;16.340;2023-03-29T07:01:05;99909.50;;;10.94;32.57
16331;BME280;8275;48.206;16.340;2023-03-29T07:03:33;99915.53;;;11.07;32.52
16331;BME280;8275;48.206;16.340;2023-03-29T07:06:03;99917.75;;;11.22;32.33
16331;BME280;8275;48.206;16.340;2023-03-29T07:08:36;99912.78;;;11.36;32.31
16331;BME280;8275;48.206;16.340;2023-03-29T07:11:12;99913.00;;;11.46;32.06
16331;BME280;8275;48.206;16.340;2023-03-29T07:13:42;99909.09;;;11.58;31.89
16331;BME280;8275;48.206;16.340;2023-03-29T07:16:12;99910.72;;;11.71;32.09
16331;BME280;8275;48.206;16.340;2023-03-29T07:18:42;99908.97;;;11.81;31.68
16331;BME280;8275;48.206;16.340;2023-03-29T07:21:11;99910.56;;;11.94;31.90
16331;BME280;8275;48.206;16.340;2023-03-29T07:23:40;99913.47;;;12.04;31.65
16331;BME280;8275;48.206;16.340;2023-03-29T07:26:11;99906.16;;;12.10;31.31
16331;BME280;8275;48.206;16.340;2023-03-29T07:28:54;99904.06;;;12.17;31.33
16331;BME280;8275;48.206;16.340;2023-03-29T07:31:23;99910.22;;;12.24;31.32
16331;BME280;8275;48.206;16.340;2023-03-29T07:33:51;99908.13;;;12.31;31.12
16331;BME280;8275;48.206;16.340;2023-03-29T07:36:20;99903.88;;;12.40;30.63
16331;BME280;8275;48.206;16.340;2023-03-29T07:38:48;99907.34;;;12.52;30.82
16331;BME280;8275;48.206;16.340;2023-03-29T07:41:20;99913.03;;;12.67;30.57
16331;BME280;8275;48.206;16.340;2023-03-29T07:43:48;99908.75;;;12.76;30.55
16331;BME280;8275;48.206;16.340;2023-03-29T07:46:18;99901.72;;;12.85;30.34
16331;BME280;8275;48.206;16.340;2023-03-29T07:48:46;99896.63;;;12.94;30.32
16331;BME280;8275;48.206;16.340;2023-03-29T07:51:15;99899.84;;;13.07;29.92
16331;BME280;8275;48.206;16.340;2023-03-29T07:53:43;99896.97;;;13.19;29.92
16331;BME280;8275;48.206;16.340;2023-03-29T07:56:12;99896.81;;;13.30;29.72
16331;BME280;8275;48.206;16.340;2023-03-29T07:58:43;99894.47;;;13.44;29.56
16331;BME280;8275;48.206;16.340;2023-03-29T08:01:12;99881.97;;;13.58;29.41
16331;BME280;8275;48.206;16.340;2023-03-29T08:03:45;99882.59;;;13.70;29.23
16331;BME280;8275;48.206;16.340;2023-03-29T08:06:14;99875.22;;;13.76;29.00
16331;BME280;8275;48.206;16.340;2023-03-29T08:08:43;99882.38;;;13.77;28.91
16331;BME280;8275;48.206;16.340;2023-03-29T08:11:11;99871.69;;;13.80;28.92
16331;BME280;8275;48.206;16.340;2023-03-29T08:13:41;99870.38;;;13.88;28.67
16331;BME280;8275;48.206;16.340;2023-03-29T08:16:10;99877.06;;;13.97;28.56
16331;BME280;8275;48.206;16.340;2023-03-29T08:18:38;99865.06;;;14.13;28.54
16331;BME280;8275;48.206;16.340;2023-03-29T08:21:07;99870.44;;;14.35;28.37
16331;BME280;8275;48.206;16.340;2023-03-29T08:23:36;99867.84;;;14.55;28.00
16331;BME280;8275;48.206;16.340;2023-03-29T08:26:05;99865.41;;;14.63;27.95
16331;BME280;8275;48.206;16.340;2023-03-29T08:28:34;99867.34;;;14.68;27.79
16331;BME280;8275;48.206;16.340;2023-03-29T08:31:06;99867.63;;;14.71;27.59
16331;BME280;8275;48.206;16.340;2023-03-29T08:33:36;99866.88;;;14.86;27.62
16331;BME280;8275;48.206;16.340;2023-03-29T08:36:05;99867.50;;;15.03;27.46
16331;BME280;8275;48.206;16.340;2023-03-29T08:38:34;99870.56;;;15.22;27.29
16331;BME280;8275;48.206;16.340;2023-03-29T08:41:12;99861.47;;;15.26;27.03
16331;BME280;8275;48.206;16.340;2023-03-29T08:43:54;99873.66;;;15.35;26.81
16331;BME280;8275;48.206;16.340;2023-03-29T08:46:35;99872.31;;;15.48;26.63
16331;BME280;8275;48.206;16.340;2023-03-29T08:49:07;99860.47;;;15.63;26.55
16331;BME280;8275;48.206;16.340;2023-03-29T08:51:39;99853.56;;;15.75;26.18
16331;BME280;8275;48.206;16.340;2023-03-29T08:54:14;99859.38;;;15.84;26.29
16331;BME280;8275;48.206;16.340;2023-03-29T08:56:44;99855.50;;;15.95;26.23
16331;BME280;8275;48.206;16.340;2023-03-29T08:59:19;99849.69;;;16.06;26.29
16331;BME280;8275;48.206;16.340;2023-03-29T09:01:54;99838.59;;;16.22;25.95
16331;BME280;8275;48.206;16.340;2023-03-29T09:04:27;99835.84;;;16.32;25.95
16331;BME280;8275;48.206;16.340;2023-03-29T09:06:56;99838.28;;;16.38;25.71
16331;BME280;8275;48.206;16.340;2023-03-29T09:09:31;99841.06;;;16.38;25.53
16331;BME280;8275;48.206;16.340;2023-03-29T09:12:11;99838.84;;;16.40;25.30
16331;BME280;8275;48.206;16.340;2023-03-29T09:15:00;99833.31;;;16.40;25.15
16331;BME280;8275;48.206;16.340;2023-03-29T09:17:44;99844.91;;;16.42;25.33
16331;BME280;8275;48.206;16.340;2023-03-29T09:20:26;99847.69;;;16.52;25.30
16331;BME280;8275;48.206;16.340;2023-03-29T09:23:15;99840.72;;;16.65;25.21
16331;BME280;8275;48.206;16.340;2023-03-29T09:25:56;99845.41;;;16.74;25.19
16331;BME280;8275;48.206;16.340;2023-03-29T09:28:32;99843.44;;;16.85;25.05
16331;BME280;8275;48.206;16.340;2023-03-29T09:31:07;99838.66;;;16.96;24.83
16331;BME280;8275;48.206;16.340;2023-03-29T09:33:44;99842.28;;;16.96;24.72
16331;BME280;8275;48.206;16.340;2023-03-29T09:36:17;99833.13;;;16.96;24.83
16331;BME280;8275;48.206;16.340;2023-03-29T09:38:48;99831.47;;;16.95;24.87
16331;BME280;8275;48.206;16.340;2023-03-29T09:41:24;99835.91;;;16.91;24.66
16331;BME280;8275;48.206;16.340;2023-03-29T09:43:57;99828.69;;;16.95;24.55
16331;BME280;8275;48.206;16.340;2023-03-29T09:46:32;99826.19;;;16.98;24.43
16331;BME280;8275;48.206;16.340;2023-03-29T09:49:10;99827.81;;;17.04;24.49
16331;BME280;8275;48.206;16.340;2023-03-29T09:51:44;99828.06;;;17.13;24.31
16331;BME280;8275;48.206;16.340;2023-03-29T09:54:14;99820.88;;;17.12;24.14
16331;BME280;8275;48.206;16.340;2023-03-29T09:56:43;99819.25;;;17.06;24.22
16331;BME280;8275;48.206;16.340;2023-03-29T09:59:12;99824.19;;;17.09;24.37
16331;BME280;8275;48.206;16.340;2023-03-29T10:01:42;99825.03;;;17.09;24.16
16331;BME280;8275;48.206;16.340;2023-03-29T10:04:14;99819.47;;;17.14;24.26
16331;BME280;8275;48.206;16.340;2023-03-29T10:06:46;99819.41;;;17.24;24.18
16331;BME280;8275;48.206;16.340;2023-03-29T10:09:19;99823.81;;;17.30;24.15
16331;BME280;8275;48.206;16.340;2023-03-29T10:11:52;99820.72;;;17.32;24.12
16331;BME280;8275;48.206;16.340;2023-03-29T10:14:32;99823.50;;;17.32;23.93
16331;BME280;8275;48.206;16.340;2023-03-29T10:17:04;99817.13;;;17.31;23.93
16331;BME280;8275;48.206;16.340;2023-03-29T10:19:36;99817.19;;;17.26;23.92
16331;BME280;8275;48.206;16.340;2023-03-29T10:22:06;99813.38;;;17.17;23.66
16331;BME280;8275;48.206;16.340;2023-03-29T10:24:35;99813.41;;;17.07;23.89
16331;BME280;8275;48.206;16.340;2023-03-29T10:27:06;99811.81;;;17.01;23.79
16331;BME280;8275;48.206;16.340;2023-03-29T10:29:39;99811.00;;;16.96;23.87
16331;BME280;8275;48.206;16.340;2023-03-29T10:32:16;99796.34;;;16.90;24.00
16331;BME280;8275;48.206;16.340;2023-03-29T10:34:46;99802.72;;;16.91;23.83
16331;BME280;8275;48.206;16.340;2023-03-29T10:37:17;99797.19;;;16.85;23.98
16331;BME280;8275;48.206;16.340;2023-03-29T10:39:47;99796.41;;;16.80;24.10
16331;BME280;8275;48.206;16.340;2023-03-29T10:42:18;99799.44;;;16.78;24.10
16331;BME280;8275;48.206;16.340;2023-03-29T10:44:54;99795.03;;;16.82;24.21
16331;BME280;8275;48.206;16.340;2023-03-29T10:47:24;99794.69;;;16.89;24.34
16331;BME280;8275;48.206;16.340;2023-03-29T10:49:56;99799.09;;;16.90;24.04
16331;BME280;8275;48.206;16.340;2023-03-29T10:52:25;99800.22;;;16.89;24.23
16331;BME280;8275;48.206;16.340;2023-03-29T10:54:54;99799.97;;;16.85;24.27
16331;BME280;8275;48.206;16.340;2023-03-29T10:57:32;99796.41;;;16.85;24.28
16331;BME280;8275;48.206;16.340;2023-03-29T11:00:14;99801.94;;;16.85;24.05
16331;BME280;8275;48.206;16.340;2023-03-29T11:03:24;99801.66;;;16.81;24.28
16331;BME280;8275;48.206;16.340;2023-03-29T11:06:04;99791.97;;;16.84;24.28
16331;BME280;8275;48.206;16.340;2023-03-29T11:08:53;99778.13;;;16.84;24.38
16331;BME280;8275;48.206;16.340;2023-03-29T11:11:59;99786.41;;;16.84;24.34
16331;BME280;8275;48.206;16.340;2023-03-29T11:14:53;99781.13;;;16.88;24.59
16331;BME280;8275;48.206;16.340;2023-03-29T11:17:37;99781.66;;;16.95;24.33
16331;BME280;8275;48.206;16.340;2023-03-29T11:20:20;99777.75;;;17.01;24.14
16331;BME280;8275;48.206;16.340;2023-03-29T11:23:06;99772.66;;;17.18;24.24
16331;BME280;8275;48.206;16.340;2023-03-29T11:25:54;99766.72;;;17.34;24.24
16331;BME280;8275;48.206;16.340;2023-03-29T11:28:33;99762.72;;;17.50;24.37
16331;BME280;8275;48.206;16.340;2023-03-29T11:31:15;99765.63;;;17.69;24.07
16331;BME280;8275;48.206;16.340;2023-03-29T11:33:57;99770.28;;;17.74;24.07
16331;BME280;8275;48.206;16.340;2023-03-29T11:36:36;99757.63;;;17.68;24.25
16331;BME280;8275;48.206;16.340;2023-03-29T11:39:16;99751.28;;;17.62;24.40
16331;BME280;8275;48.206;16.340;2023-03-29T11:41:51;99752.06;;;17.68;24.51
16331;BME280;8275;48.206;16.340;2023-03-29T11:44:26;99750.59;;;17.75;24.61
16331;BME280;8275;48.206;16.340;2023-03-29T11:47:00;99745.53;;;17.82;24.56
16331;BME280;8275;48.206;16.340;2023-03-29T11:49:35;99746.88;;;17.90;24.55
16331;BME280;8275;48.206;16.340;2023-03-29T11:52:10;99745.22;;;17.89;24.80
16331;BME280;8275;48.206;16.340;2023-03-29T11:54:45;99749.97;;;17.83;24.85
16331;BME280;8275;48.206;16.340;2023-03-29T11:57:21;99745.31;;;17.79;25.23
16331;BME280;8275;48.206;16.340;2023-03-29T11:59:55;99733.41;;;17.78;24.96
16331;BME280;8275;48.206;16.340;2023-03-29T12:02:33;99730.31;;;17.80;25.22
16331;BME280;8275;48.206;16.340;2023-03-29T12:05:11;99728.34;;;17.85;25.30
16331;BME280;8275;48.206;16.340;2023-03-29T12:07:45;99732.84;;;18.05;25.42
16331;BME280;8275;48.206;16.340;2023-03-29T12:10:20;99721.53;;;18.25;25.04
16331;BME280;8275;48.206;16.340;2023-03-29T12:12:55;99723.00;;;18.41;25.34
16331;BME280;8275;48.206;16.340;2023-03-29T12:15:28;99724.41;;;18.39;25.26
16331;BME280;8275;48.206;16.340;2023-03-29T12:18:08;99711.84;;;18.22;25.43
16331;BME280;8275;48.206;16.340;2023-03-29T12:20:42;99719.03;;;18.00;25.64
16331;BME280;8275;48.206;16.340;2023-03-29T12:23:14;99703.16;;;17.82;25.86
16331;BME280;8275;48.206;16.340;2023-03-29T12:25:52;99704.97;;;17.68;26.11
16331;BME280;8275;48.206;16.340;2023-03-29T12:28:50;99709.72;;;17.62;26.32
16331;BME280;8275;48.206;16.340;2023-03-29T12:31:27;99702.78;;;17.65;26.21
16331;BME280;8275;48.206;16.340;2023-03-29T12:34:31;99708.50;;;17.73;26.17
16331;BME280;8275;48.206;16.340;2023-03-29T12:37:31;99695.13;;;17.80;26.29
16331;BME280;8275;48.206;16.340;2023-03-29T12:40:12;99686.06;;;17.98;26.41
16331;BME280;8275;48.206;16.340;2023-03-29T12:42:52;99681.47;;;18.12;26.30
16331;BME280;8275;48.206;16.340;2023-03-29T12:45:29;99681.72;;;18.16;26.28
16331;BME280;8275;48.206;16.340;2023-03-29T12:48:00;99691.38;;;18.18;26.31
16331;BME280;8275;48.206;16.340;2023-03-29T12:50:33;99682.28;;;18.13;26.28
16331;BME280;8275;48.206;16.340;2023-03-29T12:53:06;99678.75;;;18.07;26.27
16331;BME280;8275;48.206;16.340;2023-03-29T12:55:49;99681.91;;;17.96;26.39
16331;BME280;8275;48.206;16.340;2023-03-29T12:58:31;99677.03;;;17.88;26.41
16331;BME280;8275;48.206;16.340;2023-03-29T13:01:06;99675.69;;;17.85;26.44
16331;BME280;8275;48.206;16.340;2023-03-29T13:03:47;99674.75;;;17.95;26.50
16331;BME280;8275;48.206;16.340;2023-03-29T13:06:31;99672.38;;;18.07;26.40
16331;BME280;8275;48.206;16.340;2023-03-29T13:09:02;99673.13;;;18.12;26.37
16331;BME280;8275;48.206;16.340;2023-03-29T13:11:33;99675.75;;;18.04;26.61
16331;BME280;8275;48.206;16.340;2023-03-29T13:14:12;99669.41;;;17.98;26.75
16331;BME280;8275;48.206;16.340;2023-03-29T13:16:43;99663.81;;;18.03;26.73
16331;BME280;8275;48.206;16.340;2023-03-29T13:19:26;99665.44;;;18.09;26.84
16331;BME280;8275;48.206;16.340;2023-03-29T13:22:11;99667.53;;;18.17;26.81
16331;BME280;8275;48.206;16.340;2023-03-29T13:25:07;99663.56;;;18.23;26.60
16331;BME280;8275;48.206;16.340;2023-03-29T13:27:46;99662.16;;;18.26;26.66
16331;BME280;8275;48.206;16.340;2023-03-29T13:30:34;99653.63;;;18.22;26.56
16331;BME280;8275;48.206;16.340;2023-03-29T13:36:34;99647.53;;;18.20;26.86
16331;BME280;8275;48.206;16.340;2023-03-29T13:39:06;99639.69;;;18.28;26.96